Meath Environmental Platform

Observations for Trim Market St

Time AQI Temp °C Hum % Pres Pa CO μg/m³ H₂S μg/m³ NO μg/m³ NO₂ μg/m³ O₃ μg/m³ SO₂ μg/m³ PM1 μg/m³ PM2.5 μg/m³ PM10 μg/m³
Tuesday 25 August 2026
15:38 3 24.4 46 62,707 0 6 1.05 29.6 104.13 0 4.99 7.8 10.59
15:35 3 24.4 46 62,884 0 7.75 0.96 30.34 105.53 0 2.14 5.74 8.3
15:34 3 24.4 46 63,019 0 7.75 1 28.63 114.12 0 4.28 7.31 9.07
15:33 3 24.4 46 63,155 0 7.51 0.99 25.26 116.52 0 4.99 7.83 9.84
15:31 3 24.4 46 63,462 0 7.25 0.98 23.63 111.45 0 4.28 7.33 9.07
15:30 3 24.4 45 63,643 0 7.19 1 22.16 112.81 0 2.85 5.78 6.75
15:27 3 24.6 45 64,088 0 6.82 0.91 20.72 123.16 0 5.7 8.94 12.19
15:22 3 24.9 44 64,709 0 6.36 0.97 20.76 130.36 0 4.28 8.48 11.44
15:19 3 25 43 64,944 0 6.62 0.92 19.82 117.53 0 3.56 6.94 9.1
15:15 3 25.2 42 65,280 0 4.41 0.95 20.11 111.76 0 2.85 5.42 5.94
15:11 3 25.5 42 65,410 0 6.05 0.94 27.63 94.92 0 3.56 8.61 10.71
15:10 3 25.5 41 65,466 0 4 0.93 18.4 112.73 0 2.85 5.99 6.73
15:09 3 25.6 41 65,540 0 3.76 0.83 18.72 120.81 0 2.85 8.12 10.72
15:08 3 25.7 41 65,607 0 2.98 0.85 17.99 101.73 0 2.85 6.55 8.33
15:07 3 25.8 40 65,633 0 3.03 0.86 19.24 130.31 0 3.56 6.03 7.53
15:06 3 25.9 40 65,670 0 0 0.82 17.07 105.43 0 4.99 7.63 9.94
15:05 3 26 40 65,686 0 0.25 0.8 17.84 100.2 0 3.56 6.58 9.14
15:04 3 26.1 40 65,702 0 0 0.87 17.5 93.02 0 3.56 7.12 8.33
15:03 3 26.1 40 65,728 0 0.78 0.95 20.45 99.56 0 5.7 8.72 10.76
15:02 3 26.3 39 65,726 0 0.13 0.94 18.53 101.91 0 2.85 6.61 8.33